sensor_id;sensor_type;location;lat;lon;timestamp;P1;durP1;ratioP1;P2;durP2;ratioP2
41635;SDS011;27623;51.966;4.602;2023-03-01T00:01:52;11.27;;;7.60;;
41635;SDS011;27623;51.966;4.602;2023-03-01T00:04:17;12.80;;;6.80;;
41635;SDS011;27623;51.966;4.602;2023-03-01T00:06:43;11.32;;;7.38;;
41635;SDS011;27623;51.966;4.602;2023-03-01T00:09:11;13.50;;;7.80;;
41635;SDS011;27623;51.966;4.602;2023-03-01T00:11:37;12.32;;;7.80;;
41635;SDS011;27623;51.966;4.602;2023-03-01T00:14:03;11.73;;;7.78;;
41635;SDS011;27623;51.966;4.602;2023-03-01T00:16:39;13.73;;;8.52;;
41635;SDS011;27623;51.966;4.602;2023-03-01T00:19:06;16.27;;;7.68;;
41635;SDS011;27623;51.966;4.602;2023-03-01T00:21:35;12.60;;;7.03;;
41635;SDS011;27623;51.966;4.602;2023-03-01T00:24:01;11.90;;;7.70;;
41635;SDS011;27623;51.966;4.602;2023-03-01T00:26:26;13.40;;;7.65;;
41635;SDS011;27623;51.966;4.602;2023-03-01T00:28:53;14.13;;;7.88;;
41635;SDS011;27623;51.966;4.602;2023-03-01T00:31:21;14.60;;;8.77;;
41635;SDS011;27623;51.966;4.602;2023-03-01T00:33:48;13.55;;;8.07;;
41635;SDS011;27623;51.966;4.602;2023-03-01T00:36:18;14.90;;;8.65;;
41635;SDS011;27623;51.966;4.602;2023-03-01T00:38:45;13.25;;;8.20;;
41635;SDS011;27623;51.966;4.602;2023-03-01T00:41:11;13.30;;;8.05;;
41635;SDS011;27623;51.966;4.602;2023-03-01T00:43:39;11.75;;;7.70;;
41635;SDS011;27623;51.966;4.602;2023-03-01T00:46:06;14.25;;;8.20;;
41635;SDS011;27623;51.966;4.602;2023-03-01T00:48:34;17.30;;;10.35;;
41635;SDS011;27623;51.966;4.602;2023-03-01T00:51:10;21.77;;;8.75;;
41635;SDS011;27623;51.966;4.602;2023-03-01T00:53:38;12.82;;;7.78;;
41635;SDS011;27623;51.966;4.602;2023-03-01T00:56:05;13.93;;;8.70;;
41635;SDS011;27623;51.966;4.602;2023-03-01T00:58:32;15.00;;;8.70;;
41635;SDS011;27623;51.966;4.602;2023-03-01T01:00:58;15.63;;;8.90;;
41635;SDS011;27623;51.966;4.602;2023-03-01T01:03:24;16.58;;;9.13;;
41635;SDS011;27623;51.966;4.602;2023-03-01T01:05:50;16.33;;;9.05;;
41635;SDS011;27623;51.966;4.602;2023-03-01T01:08:19;16.02;;;9.20;;
41635;SDS011;27623;51.966;4.602;2023-03-01T01:10:45;19.10;;;8.73;;
41635;SDS011;27623;51.966;4.602;2023-03-01T01:13:11;14.85;;;8.85;;
41635;SDS011;27623;51.966;4.602;2023-03-01T01:15:37;16.25;;;10.02;;
41635;SDS011;27623;51.966;4.602;2023-03-01T01:18:03;16.58;;;9.20;;
41635;SDS011;27623;51.966;4.602;2023-03-01T01:20:28;15.05;;;8.93;;
41635;SDS011;27623;51.966;4.602;2023-03-01T01:22:54;18.58;;;9.30;;
41635;SDS011;27623;51.966;4.602;2023-03-01T01:25:19;18.13;;;9.55;;
41635;SDS011;27623;51.966;4.602;2023-03-01T01:27:45;15.57;;;9.25;;
41635;SDS011;27623;51.966;4.602;2023-03-01T01:30:10;20.30;;;9.35;;
41635;SDS011;27623;51.966;4.602;2023-03-01T01:32:36;15.80;;;9.43;;
41635;SDS011;27623;51.966;4.602;2023-03-01T01:35:02;14.10;;;8.77;;
41635;SDS011;27623;51.966;4.602;2023-03-01T01:37:27;15.45;;;9.30;;
41635;SDS011;27623;51.966;4.602;2023-03-01T01:39:59;15.95;;;9.18;;
41635;SDS011;27623;51.966;4.602;2023-03-01T01:42:26;17.23;;;9.50;;
41635;SDS011;27623;51.966;4.602;2023-03-01T01:47:48;18.35;;;9.20;;
41635;SDS011;27623;51.966;4.602;2023-03-01T01:50:14;16.23;;;9.02;;
41635;SDS011;27623;51.966;4.602;2023-03-01T01:52:43;17.30;;;10.25;;
41635;SDS011;27623;51.966;4.602;2023-03-01T01:55:20;19.10;;;9.48;;
41635;SDS011;27623;51.966;4.602;2023-03-01T01:57:49;16.65;;;9.18;;
41635;SDS011;27623;51.966;4.602;2023-03-01T02:00:20;19.80;;;9.90;;
41635;SDS011;27623;51.966;4.602;2023-03-01T02:02:49;16.20;;;9.00;;
41635;SDS011;27623;51.966;4.602;2023-03-01T02:05:28;15.60;;;10.02;;
41635;SDS011;27623;51.966;4.602;2023-03-01T02:07:54;18.38;;;9.70;;
41635;SDS011;27623;51.966;4.602;2023-03-01T02:10:21;22.38;;;10.20;;
41635;SDS011;27623;51.966;4.602;2023-03-01T02:12:48;16.60;;;9.90;;
41635;SDS011;27623;51.966;4.602;2023-03-01T02:15:14;16.88;;;9.77;;
41635;SDS011;27623;51.966;4.602;2023-03-01T02:17:39;16.92;;;9.73;;
41635;SDS011;27623;51.966;4.602;2023-03-01T02:20:17;17.92;;;9.77;;
41635;SDS011;27623;51.966;4.602;2023-03-01T02:22:44;18.40;;;9.43;;
41635;SDS011;27623;51.966;4.602;2023-03-01T02:30:43;21.30;;;9.27;;
41635;SDS011;27623;51.966;4.602;2023-03-01T02:33:31;19.45;;;10.10;;
41635;SDS011;27623;51.966;4.602;2023-03-01T02:36:03;19.38;;;8.88;;
41635;SDS011;27623;51.966;4.602;2023-03-01T02:38:31;18.20;;;9.63;;
41635;SDS011;27623;51.966;4.602;2023-03-01T02:40:57;15.00;;;8.93;;
41635;SDS011;27623;51.966;4.602;2023-03-01T02:43:24;17.33;;;9.18;;
41635;SDS011;27623;51.966;4.602;2023-03-01T02:45:58;16.35;;;9.07;;
41635;SDS011;27623;51.966;4.602;2023-03-01T02:48:45;15.18;;;9.50;;
41635;SDS011;27623;51.966;4.602;2023-03-01T02:51:38;18.00;;;9.82;;
41635;SDS011;27623;51.966;4.602;2023-03-01T02:56:41;17.63;;;9.18;;
41635;SDS011;27623;51.966;4.602;2023-03-01T02:59:09;17.23;;;9.45;;
41635;SDS011;27623;51.966;4.602;2023-03-01T03:01:36;17.60;;;9.88;;
41635;SDS011;27623;51.966;4.602;2023-03-01T03:04:08;19.52;;;9.68;;
41635;SDS011;27623;51.966;4.602;2023-03-01T03:06:36;21.48;;;10.13;;
41635;SDS011;27623;51.966;4.602;2023-03-01T03:09:03;15.95;;;9.73;;
41635;SDS011;27623;51.966;4.602;2023-03-01T03:11:29;19.33;;;10.88;;
41635;SDS011;27623;51.966;4.602;2023-03-01T03:13:57;16.50;;;9.98;;
41635;SDS011;27623;51.966;4.602;2023-03-01T03:16:23;18.20;;;10.75;;
41635;SDS011;27623;51.966;4.602;2023-03-01T03:18:49;22.63;;;10.68;;
41635;SDS011;27623;51.966;4.602;2023-03-01T03:21:17;19.38;;;10.77;;
41635;SDS011;27623;51.966;4.602;2023-03-01T03:23:45;19.15;;;10.65;;
41635;SDS011;27623;51.966;4.602;2023-03-01T03:26:10;17.42;;;10.52;;
41635;SDS011;27623;51.966;4.602;2023-03-01T03:28:39;21.15;;;11.25;;
41635;SDS011;27623;51.966;4.602;2023-03-01T03:31:06;18.75;;;10.68;;
41635;SDS011;27623;51.966;4.602;2023-03-01T03:33:32;20.23;;;10.88;;
41635;SDS011;27623;51.966;4.602;2023-03-01T03:35:58;18.50;;;10.55;;
41635;SDS011;27623;51.966;4.602;2023-03-01T03:38:23;21.20;;;10.40;;
41635;SDS011;27623;51.966;4.602;2023-03-01T03:40:55;19.83;;;10.13;;
41635;SDS011;27623;51.966;4.602;2023-03-01T03:43:28;19.88;;;10.93;;
41635;SDS011;27623;51.966;4.602;2023-03-01T03:45:55;19.52;;;11.02;;
41635;SDS011;27623;51.966;4.602;2023-03-01T03:48:24;22.73;;;11.35;;
41635;SDS011;27623;51.966;4.602;2023-03-01T03:50:51;17.42;;;10.55;;
41635;SDS011;27623;51.966;4.602;2023-03-01T03:53:19;19.13;;;10.65;;
41635;SDS011;27623;51.966;4.602;2023-03-01T03:55:46;19.60;;;11.02;;
41635;SDS011;27623;51.966;4.602;2023-03-01T03:58:14;17.73;;;10.60;;
41635;SDS011;27623;51.966;4.602;2023-03-01T04:00:41;21.38;;;11.68;;
41635;SDS011;27623;51.966;4.602;2023-03-01T04:03:09;18.92;;;11.15;;
41635;SDS011;27623;51.966;4.602;2023-03-01T04:05:36;21.60;;;12.10;;
41635;SDS011;27623;51.966;4.602;2023-03-01T04:08:03;21.15;;;10.82;;
41635;SDS011;27623;51.966;4.602;2023-03-01T04:10:36;22.73;;;11.88;;
41635;SDS011;27623;51.966;4.602;2023-03-01T04:13:03;19.50;;;11.32;;
41635;SDS011;27623;51.966;4.602;2023-03-01T04:15:30;23.42;;;12.27;;
41635;SDS011;27623;51.966;4.602;2023-03-01T04:17:57;20.25;;;11.00;;
41635;SDS011;27623;51.966;4.602;2023-03-01T04:20:25;19.33;;;11.77;;
41635;SDS011;27623;51.966;4.602;2023-03-01T04:22:59;20.70;;;11.52;;
41635;SDS011;27623;51.966;4.602;2023-03-01T04:25:41;21.55;;;11.70;;
41635;SDS011;27623;51.966;4.602;2023-03-01T04:28:14;20.42;;;11.82;;
41635;SDS011;27623;51.966;4.602;2023-03-01T04:30:40;20.33;;;11.40;;
41635;SDS011;27623;51.966;4.602;2023-03-01T04:33:06;23.60;;;12.00;;
41635;SDS011;27623;51.966;4.602;2023-03-01T04:35:34;22.38;;;12.82;;
41635;SDS011;27623;51.966;4.602;2023-03-01T04:38:03;21.70;;;11.70;;
41635;SDS011;27623;51.966;4.602;2023-03-01T04:40:29;24.02;;;11.95;;
41635;SDS011;27623;51.966;4.602;2023-03-01T04:42:54;22.05;;;11.88;;
41635;SDS011;27623;51.966;4.602;2023-03-01T04:45:22;26.58;;;14.05;;
41635;SDS011;27623;51.966;4.602;2023-03-01T04:47:50;28.02;;;14.60;;
41635;SDS011;27623;51.966;4.602;2023-03-01T04:50:17;25.85;;;13.38;;
41635;SDS011;27623;51.966;4.602;2023-03-01T04:52:45;22.25;;;11.88;;
41635;SDS011;27623;51.966;4.602;2023-03-01T04:55:14;26.00;;;12.40;;
41635;SDS011;27623;51.966;4.602;2023-03-01T04:57:40;26.98;;;13.45;;
41635;SDS011;27623;51.966;4.602;2023-03-01T05:00:07;27.67;;;12.77;;
41635;SDS011;27623;51.966;4.602;2023-03-01T05:05:18;32.80;;;14.38;;
41635;SDS011;27623;51.966;4.602;2023-03-01T05:07:46;31.42;;;14.35;;
41635;SDS011;27623;51.966;4.602;2023-03-01T05:10:11;26.92;;;13.95;;
41635;SDS011;27623;51.966;4.602;2023-03-01T05:12:36;25.08;;;13.77;;
41635;SDS011;27623;51.966;4.602;2023-03-01T05:15:02;24.27;;;13.15;;
41635;SDS011;27623;51.966;4.602;2023-03-01T05:17:32;23.60;;;12.30;;
41635;SDS011;27623;51.966;4.602;2023-03-01T05:19:58;19.77;;;11.68;;
41635;SDS011;27623;51.966;4.602;2023-03-01T05:22:24;19.23;;;11.02;;
41635;SDS011;27623;51.966;4.602;2023-03-01T05:24:50;17.70;;;10.27;;
41635;SDS011;27623;51.966;4.602;2023-03-01T05:27:19;17.85;;;11.65;;
41635;SDS011;27623;51.966;4.602;2023-03-01T05:29:47;20.15;;;10.20;;
41635;SDS011;27623;51.966;4.602;2023-03-01T05:32:12;17.13;;;10.20;;
41635;SDS011;27623;51.966;4.602;2023-03-01T05:34:40;15.82;;;9.63;;
41635;SDS011;27623;51.966;4.602;2023-03-01T05:37:06;15.98;;;9.75;;
41635;SDS011;27623;51.966;4.602;2023-03-01T05:39:32;20.08;;;11.20;;
41635;SDS011;27623;51.966;4.602;2023-03-01T05:41:59;17.33;;;9.73;;
41635;SDS011;27623;51.966;4.602;2023-03-01T05:44:26;16.27;;;9.80;;
41635;SDS011;27623;51.966;4.602;2023-03-01T05:46:53;15.07;;;9.82;;
41635;SDS011;27623;51.966;4.602;2023-03-01T05:49:18;16.45;;;9.60;;
41635;SDS011;27623;51.966;4.602;2023-03-01T05:51:49;13.90;;;9.23;;
41635;SDS011;27623;51.966;4.602;2023-03-01T05:54:16;16.85;;;10.43;;
41635;SDS011;27623;51.966;4.602;2023-03-01T05:56:42;17.42;;;9.70;;
41635;SDS011;27623;51.966;4.602;2023-03-01T05:59:08;13.48;;;9.20;;
41635;SDS011;27623;51.966;4.602;2023-03-01T06:01:33;13.82;;;9.00;;
41635;SDS011;27623;51.966;4.602;2023-03-01T06:03:59;14.75;;;9.80;;
41635;SDS011;27623;51.966;4.602;2023-03-01T06:06:25;14.40;;;9.23;;
41635;SDS011;27623;51.966;4.602;2023-03-01T06:08:53;16.73;;;9.02;;
41635;SDS011;27623;51.966;4.602;2023-03-01T06:11:19;13.80;;;9.70;;
41635;SDS011;27623;51.966;4.602;2023-03-01T06:13:46;13.60;;;8.98;;
41635;SDS011;27623;51.966;4.602;2023-03-01T06:16:12;14.77;;;9.07;;
41635;SDS011;27623;51.966;4.602;2023-03-01T06:18:39;13.95;;;8.77;;
41635;SDS011;27623;51.966;4.602;2023-03-01T06:21:05;13.52;;;9.05;;
41635;SDS011;27623;51.966;4.602;2023-03-01T06:23:32;15.70;;;8.75;;
41635;SDS011;27623;51.966;4.602;2023-03-01T06:25:58;15.77;;;9.60;;
41635;SDS011;27623;51.966;4.602;2023-03-01T06:28:23;17.40;;;9.52;;
41635;SDS011;27623;51.966;4.602;2023-03-01T06:30:51;17.23;;;10.02;;
41635;SDS011;27623;51.966;4.602;2023-03-01T06:33:17;19.05;;;9.95;;
41635;SDS011;27623;51.966;4.602;2023-03-01T06:35:45;14.18;;;9.02;;
41635;SDS011;27623;51.966;4.602;2023-03-01T06:38:11;16.30;;;10.25;;
41635;SDS011;27623;51.966;4.602;2023-03-01T06:40:39;14.90;;;9.48;;
41635;SDS011;27623;51.966;4.602;2023-03-01T06:43:05;16.58;;;10.23;;
41635;SDS011;27623;51.966;4.602;2023-03-01T06:45:32;18.23;;;10.13;;
41635;SDS011;27623;51.966;4.602;2023-03-01T06:48:02;19.25;;;10.80;;
41635;SDS011;27623;51.966;4.602;2023-03-01T06:50:31;16.25;;;10.65;;
41635;SDS011;27623;51.966;4.602;2023-03-01T06:52:57;18.08;;;9.98;;
41635;SDS011;27623;51.966;4.602;2023-03-01T06:55:23;16.95;;;10.43;;
41635;SDS011;27623;51.966;4.602;2023-03-01T06:57:53;17.02;;;9.73;;
41635;SDS011;27623;51.966;4.602;2023-03-01T07:00:19;16.42;;;10.68;;
41635;SDS011;27623;51.966;4.602;2023-03-01T07:02:45;16.65;;;10.55;;
41635;SDS011;27623;51.966;4.602;2023-03-01T07:05:10;18.63;;;10.77;;
41635;SDS011;27623;51.966;4.602;2023-03-01T07:07:35;18.10;;;10.63;;
41635;SDS011;27623;51.966;4.602;2023-03-01T07:10:03;19.15;;;11.38;;
41635;SDS011;27623;51.966;4.602;2023-03-01T07:12:32;19.35;;;11.63;;
41635;SDS011;27623;51.966;4.602;2023-03-01T07:14:57;19.40;;;11.88;;
41635;SDS011;27623;51.966;4.602;2023-03-01T07:17:23;19.92;;;12.88;;
41635;SDS011;27623;51.966;4.602;2023-03-01T07:19:48;21.73;;;13.07;;
41635;SDS011;27623;51.966;4.602;2023-03-01T07:22:14;21.88;;;13.52;;
41635;SDS011;27623;51.966;4.602;2023-03-01T07:24:40;19.40;;;13.60;;
41635;SDS011;27623;51.966;4.602;2023-03-01T07:27:06;19.83;;;13.52;;
41635;SDS011;27623;51.966;4.602;2023-03-01T07:29:31;20.65;;;12.77;;
41635;SDS011;27623;51.966;4.602;2023-03-01T07:31:57;22.80;;;13.18;;
41635;SDS011;27623;51.966;4.602;2023-03-01T07:34:23;19.65;;;12.43;;
41635;SDS011;27623;51.966;4.602;2023-03-01T07:36:48;20.27;;;11.50;;
41635;SDS011;27623;51.966;4.602;2023-03-01T07:39:16;23.83;;;13.45;;
41635;SDS011;27623;51.966;4.602;2023-03-01T07:41:41;21.55;;;12.30;;
41635;SDS011;27623;51.966;4.602;2023-03-01T07:44:07;23.50;;;12.90;;
41635;SDS011;27623;51.966;4.602;2023-03-01T07:46:32;25.95;;;13.57;;
41635;SDS011;27623;51.966;4.602;2023-03-01T07:48:58;24.27;;;13.93;;
41635;SDS011;27623;51.966;4.602;2023-03-01T07:51:23;27.92;;;13.07;;
41635;SDS011;27623;51.966;4.602;2023-03-01T07:53:49;28.20;;;13.07;;
41635;SDS011;27623;51.966;4.602;2023-03-01T07:56:14;25.92;;;13.82;;
41635;SDS011;27623;51.966;4.602;2023-03-01T07:58:42;27.73;;;14.07;;
41635;SDS011;27623;51.966;4.602;2023-03-01T08:01:11;27.55;;;12.98;;
41635;SDS011;27623;51.966;4.602;2023-03-01T08:03:38;26.13;;;13.30;;
41635;SDS011;27623;51.966;4.602;2023-03-01T08:06:05;26.58;;;13.90;;
41635;SDS011;27623;51.966;4.602;2023-03-01T08:08:33;27.95;;;13.63;;
41635;SDS011;27623;51.966;4.602;2023-03-01T08:11:00;25.75;;;13.23;;
41635;SDS011;27623;51.966;4.602;2023-03-01T08:13:26;26.20;;;13.00;;
41635;SDS011;27623;51.966;4.602;2023-03-01T08:15:52;28.15;;;13.73;;
41635;SDS011;27623;51.966;4.602;2023-03-01T08:18:18;24.15;;;13.20;;
41635;SDS011;27623;51.966;4.602;2023-03-01T08:20:45;26.27;;;13.98;;
41635;SDS011;27623;51.966;4.602;2023-03-01T08:23:11;28.25;;;13.70;;
41635;SDS011;27623;51.966;4.602;2023-03-01T08:25:36;23.98;;;12.70;;
41635;SDS011;27623;51.966;4.602;2023-03-01T08:28:02;23.08;;;11.85;;
41635;SDS011;27623;51.966;4.602;2023-03-01T08:30:28;21.10;;;10.95;;
41635;SDS011;27623;51.966;4.602;2023-03-01T08:32:54;20.83;;;11.32;;
41635;SDS011;27623;51.966;4.602;2023-03-01T08:35:20;21.05;;;10.27;;
41635;SDS011;27623;51.966;4.602;2023-03-01T08:37:46;16.67;;;9.68;;
41635;SDS011;27623;51.966;4.602;2023-03-01T08:40:14;15.30;;;8.38;;
41635;SDS011;27623;51.966;4.602;2023-03-01T08:42:40;16.15;;;9.25;;
41635;SDS011;27623;51.966;4.602;2023-03-01T08:45:08;15.60;;;8.80;;
41635;SDS011;27623;51.966;4.602;2023-03-01T08:47:34;18.27;;;9.32;;
41635;SDS011;27623;51.966;4.602;2023-03-01T08:50:00;14.25;;;8.00;;
41635;SDS011;27623;51.966;4.602;2023-03-01T08:52:26;14.00;;;8.10;;
41635;SDS011;27623;51.966;4.602;2023-03-01T08:54:52;13.68;;;7.32;;
41635;SDS011;27623;51.966;4.602;2023-03-01T08:57:17;12.10;;;7.22;;
41635;SDS011;27623;51.966;4.602;2023-03-01T08:59:43;11.18;;;6.93;;
41635;SDS011;27623;51.966;4.602;2023-03-01T09:02:15;12.43;;;6.85;;
41635;SDS011;27623;51.966;4.602;2023-03-01T09:04:44;10.40;;;6.20;;
41635;SDS011;27623;51.966;4.602;2023-03-01T09:07:10;11.57;;;6.05;;
41635;SDS011;27623;51.966;4.602;2023-03-01T09:09:35;9.77;;;5.63;;
41635;SDS011;27623;51.966;4.602;2023-03-01T09:12:02;9.57;;;5.60;;
41635;SDS011;27623;51.966;4.602;2023-03-01T09:14:28;7.82;;;4.90;;
41635;SDS011;27623;51.966;4.602;2023-03-01T09:16:53;10.43;;;5.60;;
41635;SDS011;27623;51.966;4.602;2023-03-01T09:19:18;10.57;;;5.05;;
41635;SDS011;27623;51.966;4.602;2023-03-01T09:21:44;10.93;;;5.13;;
41635;SDS011;27623;51.966;4.602;2023-03-01T09:24:22;10.73;;;5.47;;
41635;SDS011;27623;51.966;4.602;2023-03-01T09:26:49;9.70;;;4.95;;
41635;SDS011;27623;51.966;4.602;2023-03-01T09:29:17;9.13;;;5.43;;
41635;SDS011;27623;51.966;4.602;2023-03-01T09:31:42;9.48;;;5.07;;
41635;SDS011;27623;51.966;4.602;2023-03-01T09:34:08;9.73;;;4.78;;
41635;SDS011;27623;51.966;4.602;2023-03-01T09:36:34;9.18;;;5.30;;
41635;SDS011;27623;51.966;4.602;2023-03-01T09:38:59;9.23;;;5.82;;
41635;SDS011;27623;51.966;4.602;2023-03-01T09:43:55;8.60;;;5.50;;
41635;SDS011;27623;51.966;4.602;2023-03-01T09:46:37;10.23;;;5.05;;
41635;SDS011;27623;51.966;4.602;2023-03-01T09:49:10;8.85;;;4.95;;
41635;SDS011;27623;51.966;4.602;2023-03-01T09:51:42;7.75;;;4.50;;
41635;SDS011;27623;51.966;4.602;2023-03-01T09:54:12;9.52;;;4.22;;
41635;SDS011;27623;51.966;4.602;2023-03-01T10:04:50;8.30;;;4.07;;
41635;SDS011;27623;51.966;4.602;2023-03-01T10:10:08;11.35;;;4.30;;
41635;SDS011;27623;51.966;4.602;2023-03-01T10:12:46;9.05;;;4.45;;
41635;SDS011;27623;51.966;4.602;2023-03-01T10:15:22;7.60;;;3.63;;
41635;SDS011;27623;51.966;4.602;2023-03-01T10:17:56;8.07;;;4.38;;
41635;SDS011;27623;51.966;4.602;2023-03-01T10:20:26;9.57;;;4.43;;
41635;SDS011;27623;51.966;4.602;2023-03-01T10:22:58;8.75;;;4.93;;
41635;SDS011;27623;51.966;4.602;2023-03-01T10:27:59;9.70;;;5.70;;
41635;SDS011;27623;51.966;4.602;2023-03-01T10:30:34;10.93;;;5.20;;
41635;SDS011;27623;51.966;4.602;2023-03-01T10:33:04;9.02;;;5.47;;
41635;SDS011;27623;51.966;4.602;2023-03-01T10:35:54;10.57;;;6.05;;
41635;SDS011;27623;51.966;4.602;2023-03-01T10:38:20;8.75;;;5.13;;
41635;SDS011;27623;51.966;4.602;2023-03-01T10:43:19;11.43;;;5.50;;
41635;SDS011;27623;51.966;4.602;2023-03-01T10:45:44;10.95;;;5.88;;
41635;SDS011;27623;51.966;4.602;2023-03-01T10:48:12;11.93;;;5.15;;
41635;SDS011;27623;51.966;4.602;2023-03-01T10:50:44;12.95;;;5.93;;
41635;SDS011;27623;51.966;4.602;2023-03-01T10:53:21;10.35;;;5.32;;
41635;SDS011;27623;51.966;4.602;2023-03-01T10:55:55;9.95;;;5.40;;
41635;SDS011;27623;51.966;4.602;2023-03-01T10:58:26;8.77;;;5.50;;
41635;SDS011;27623;51.966;4.602;2023-03-01T11:01:03;9.05;;;4.80;;
41635;SDS011;27623;51.966;4.602;2023-03-01T11:06:35;9.07;;;4.68;;
41635;SDS011;27623;51.966;4.602;2023-03-01T11:09:16;9.98;;;5.32;;
41635;SDS011;27623;51.966;4.602;2023-03-01T11:11:44;10.55;;;5.50;;
41635;SDS011;27623;51.966;4.602;2023-03-01T11:14:15;9.00;;;5.57;;
41635;SDS011;27623;51.966;4.602;2023-03-01T11:16:47;10.63;;;4.82;;
41635;SDS011;27623;51.966;4.602;2023-03-01T11:19:24;9.95;;;5.13;;
41635;SDS011;27623;51.966;4.602;2023-03-01T11:24:54;10.57;;;5.90;;
41635;SDS011;27623;51.966;4.602;2023-03-01T11:27:23;11.63;;;5.72;;
41635;SDS011;27623;51.966;4.602;2023-03-01T11:35:34;9.93;;;5.10;;
41635;SDS011;27623;51.966;4.602;2023-03-01T11:41:00;10.95;;;4.88;;
41635;SDS011;27623;51.966;4.602;2023-03-01T11:51:24;7.88;;;4.50;;
41635;SDS011;27623;51.966;4.602;2023-03-01T12:02:12;7.85;;;4.07;;
41635;SDS011;27623;51.966;4.602;2023-03-01T12:05:13;8.32;;;4.53;;
41635;SDS011;27623;51.966;4.602;2023-03-01T12:08:16;6.82;;;4.00;;
41635;SDS011;27623;51.966;4.602;2023-03-01T12:25:16;6.47;;;3.85;;
41635;SDS011;27623;51.966;4.602;2023-03-01T12:27:55;7.35;;;4.07;;
41635;SDS011;27623;51.966;4.602;2023-03-01T12:44:39;6.10;;;3.65;;
41635;SDS011;27623;51.966;4.602;2023-03-01T12:50:17;6.72;;;3.95;;
41635;SDS011;27623;51.966;4.602;2023-03-01T12:52:47;7.90;;;3.60;;
41635;SDS011;27623;51.966;4.602;2023-03-01T12:55:26;6.63;;;3.92;;
41635;SDS011;27623;51.966;4.602;2023-03-01T12:58:04;7.47;;;4.10;;
41635;SDS011;27623;51.966;4.602;2023-03-01T13:00:51;7.78;;;3.58;;
41635;SDS011;27623;51.966;4.602;2023-03-01T13:04:16;7.15;;;3.42;;
41635;SDS011;27623;51.966;4.602;2023-03-01T13:15:32;7.45;;;4.25;;
41635;SDS011;27623;51.966;4.602;2023-03-01T13:20:44;7.35;;;3.53;;
41635;SDS011;27623;51.966;4.602;2023-03-01T13:28:52;5.50;;;3.72;;
41635;SDS011;27623;51.966;4.602;2023-03-01T13:33:50;8.13;;;3.42;;
41635;SDS011;27623;51.966;4.602;2023-03-01T13:46:44;6.68;;;3.65;;
41635;SDS011;27623;51.966;4.602;2023-03-01T13:49:17;6.63;;;3.90;;
41635;SDS011;27623;51.966;4.602;2023-03-01T13:51:48;8.40;;;3.38;;
41635;SDS011;27623;51.966;4.602;2023-03-01T13:54:25;5.95;;;3.78;;
41635;SDS011;27623;51.966;4.602;2023-03-01T13:56:58;6.63;;;3.72;;
41635;SDS011;27623;51.966;4.602;2023-03-01T13:59:25;7.85;;;3.72;;
41635;SDS011;27623;51.966;4.602;2023-03-01T14:01:57;7.13;;;4.00;;
41635;SDS011;27623;51.966;4.602;2023-03-01T14:04:27;6.97;;;4.10;;
41635;SDS011;27623;51.966;4.602;2023-03-01T14:07:17;6.53;;;3.60;;
41635;SDS011;27623;51.966;4.602;2023-03-01T14:09:47;6.25;;;3.50;;
41635;SDS011;27623;51.966;4.602;2023-03-01T14:15:02;5.78;;;3.50;;
41635;SDS011;27623;51.966;4.602;2023-03-01T14:22:46;7.35;;;3.90;;
41635;SDS011;27623;51.966;4.602;2023-03-01T14:27:45;8.85;;;3.72;;
41635;SDS011;27623;51.966;4.602;2023-03-01T14:30:20;6.40;;;4.03;;
41635;SDS011;27623;51.966;4.602;2023-03-01T14:32:56;6.78;;;3.75;;
41635;SDS011;27623;51.966;4.602;2023-03-01T14:35:34;6.47;;;3.38;;
41635;SDS011;27623;51.966;4.602;2023-03-01T14:38:01;6.88;;;3.45;;
41635;SDS011;27623;51.966;4.602;2023-03-01T14:40:32;6.80;;;3.67;;
41635;SDS011;27623;51.966;4.602;2023-03-01T14:43:03;6.07;;;3.45;;
41635;SDS011;27623;51.966;4.602;2023-03-01T14:45:36;5.30;;;3.28;;
41635;SDS011;27623;51.966;4.602;2023-03-01T14:48:02;8.40;;;3.60;;
41635;SDS011;27623;51.966;4.602;2023-03-01T14:50:32;7.00;;;4.00;;
41635;SDS011;27623;51.966;4.602;2023-03-01T14:53:00;6.57;;;3.38;;
41635;SDS011;27623;51.966;4.602;2023-03-01T14:55:29;6.97;;;3.47;;
41635;SDS011;27623;51.966;4.602;2023-03-01T14:57:59;4.68;;;2.97;;
41635;SDS011;27623;51.966;4.602;2023-03-01T15:00:30;9.40;;;3.45;;
41635;SDS011;27623;51.966;4.602;2023-03-01T15:03:00;7.03;;;3.45;;
41635;SDS011;27623;51.966;4.602;2023-03-01T15:05:34;5.35;;;3.33;;
41635;SDS011;27623;51.966;4.602;2023-03-01T15:08:01;6.32;;;3.50;;
41635;SDS011;27623;51.966;4.602;2023-03-01T15:10:29;6.82;;;3.47;;
41635;SDS011;27623;51.966;4.602;2023-03-01T15:13:09;8.32;;;4.15;;
41635;SDS011;27623;51.966;4.602;2023-03-01T15:15:45;6.38;;;3.03;;
41635;SDS011;27623;51.966;4.602;2023-03-01T15:18:13;5.93;;;3.50;;
41635;SDS011;27623;51.966;4.602;2023-03-01T15:20:40;5.10;;;3.42;;
41635;SDS011;27623;51.966;4.602;2023-03-01T15:23:05;5.30;;;3.30;;
41635;SDS011;27623;51.966;4.602;2023-03-01T15:25:31;8.10;;;4.15;;
41635;SDS011;27623;51.966;4.602;2023-03-01T15:27:58;8.55;;;4.28;;
41635;SDS011;27623;51.966;4.602;2023-03-01T15:30:31;8.70;;;3.70;;
41635;SDS011;27623;51.966;4.602;2023-03-01T15:35:46;7.95;;;3.70;;
41635;SDS011;27623;51.966;4.602;2023-03-01T15:41:23;6.65;;;3.40;;
41635;SDS011;27623;51.966;4.602;2023-03-01T15:43:55;6.70;;;3.33;;
41635;SDS011;27623;51.966;4.602;2023-03-01T15:46:26;6.72;;;3.42;;
41635;SDS011;27623;51.966;4.602;2023-03-01T15:49:02;6.55;;;3.08;;
41635;SDS011;27623;51.966;4.602;2023-03-01T15:51:36;6.80;;;4.05;;
41635;SDS011;27623;51.966;4.602;2023-03-01T15:54:06;7.47;;;3.70;;
41635;SDS011;27623;51.966;4.602;2023-03-01T15:56:40;7.38;;;3.70;;
41635;SDS011;27623;51.966;4.602;2023-03-01T15:59:05;7.40;;;3.65;;
41635;SDS011;27623;51.966;4.602;2023-03-01T16:01:36;6.65;;;3.65;;
41635;SDS011;27623;51.966;4.602;2023-03-01T16:04:04;6.18;;;3.40;;
41635;SDS011;27623;51.966;4.602;2023-03-01T16:06:29;6.60;;;3.75;;
41635;SDS011;27623;51.966;4.602;2023-03-01T16:08:55;6.32;;;3.55;;
41635;SDS011;27623;51.966;4.602;2023-03-01T16:11:21;8.23;;;3.90;;
41635;SDS011;27623;51.966;4.602;2023-03-01T16:13:47;5.35;;;3.10;;
41635;SDS011;27623;51.966;4.602;2023-03-01T16:16:13;7.10;;;3.63;;
41635;SDS011;27623;51.966;4.602;2023-03-01T16:18:41;7.03;;;3.50;;
41635;SDS011;27623;51.966;4.602;2023-03-01T16:21:10;6.63;;;3.75;;
41635;SDS011;27623;51.966;4.602;2023-03-01T16:23:38;9.10;;;4.30;;
41635;SDS011;27623;51.966;4.602;2023-03-01T16:26:03;9.85;;;3.80;;
41635;SDS011;27623;51.966;4.602;2023-03-01T16:28:29;9.27;;;3.67;;
41635;SDS011;27623;51.966;4.602;2023-03-01T16:30:54;7.97;;;3.13;;
41635;SDS011;27623;51.966;4.602;2023-03-01T16:33:20;7.57;;;3.65;;
41635;SDS011;27623;51.966;4.602;2023-03-01T16:35:45;6.68;;;3.53;;
41635;SDS011;27623;51.966;4.602;2023-03-01T16:38:10;6.38;;;3.50;;
41635;SDS011;27623;51.966;4.602;2023-03-01T16:40:36;6.13;;;4.00;;
41635;SDS011;27623;51.966;4.602;2023-03-01T16:43:02;6.70;;;3.83;;
41635;SDS011;27623;51.966;4.602;2023-03-01T16:45:29;7.13;;;3.92;;
41635;SDS011;27623;51.966;4.602;2023-03-01T16:48:00;6.43;;;3.53;;
41635;SDS011;27623;51.966;4.602;2023-03-01T16:50:25;8.70;;;3.97;;
41635;SDS011;27623;51.966;4.602;2023-03-01T16:52:53;6.85;;;3.60;;
41635;SDS011;27623;51.966;4.602;2023-03-01T16:55:19;8.07;;;3.90;;
41635;SDS011;27623;51.966;4.602;2023-03-01T16:57:44;9.65;;;4.38;;
41635;SDS011;27623;51.966;4.602;2023-03-01T17:00:10;7.70;;;3.88;;
41635;SDS011;27623;51.966;4.602;2023-03-01T17:02:38;7.13;;;4.07;;
41635;SDS011;27623;51.966;4.602;2023-03-01T17:05:06;10.68;;;5.25;;
41635;SDS011;27623;51.966;4.602;2023-03-01T17:07:33;10.32;;;4.93;;